createdAt,value
2022-12-05T00:01:43.971Z,30.60
2022-12-05T00:04:14.822Z,33.63
2022-12-05T00:06:43.429Z,31.37
2022-12-05T00:09:13.020Z,29.70
2022-12-05T00:11:43.765Z,26.20
2022-12-05T00:14:12.534Z,28.13
2022-12-05T00:16:42.831Z,25.23
2022-12-05T00:19:14.605Z,25.73
2022-12-05T00:21:43.056Z,25.37
2022-12-05T00:24:15.053Z,29.00
2022-12-05T00:26:43.810Z,27.13
2022-12-05T00:29:11.869Z,26.63
2022-12-05T00:31:39.640Z,24.53
2022-12-05T00:34:07.258Z,25.63
2022-12-05T00:36:36.401Z,24.73
2022-12-05T00:39:11.400Z,24.67
2022-12-05T00:41:38.999Z,25.17
2022-12-05T00:44:07.055Z,25.40
2022-12-05T00:46:35.677Z,23.33
2022-12-05T00:49:05.818Z,24.83
2022-12-05T00:51:40.786Z,24.77
2022-12-05T00:54:12.899Z,24.23
2022-12-05T00:56:40.667Z,24.10
2022-12-05T00:59:09.284Z,23.87
2022-12-05T01:01:41.464Z,24.37
2022-12-05T01:04:17.367Z,24.60
2022-12-05T01:06:45.161Z,25.80
2022-12-05T01:09:15.716Z,24.47
2022-12-05T01:11:43.426Z,24.33
2022-12-05T01:14:13.173Z,25.10
2022-12-05T01:16:42.543Z,25.70
2022-12-05T01:19:16.407Z,24.30
2022-12-05T01:21:44.347Z,26.07
2022-12-05T01:24:12.786Z,24.13
2022-12-05T01:26:42.358Z,23.37
2022-12-05T01:29:11.695Z,23.13
2022-12-05T01:31:39.960Z,22.07
2022-12-05T01:34:13.493Z,22.23
2022-12-05T01:36:42.110Z,23.47
2022-12-05T01:39:11.051Z,23.00
2022-12-05T01:41:46.489Z,21.97
2022-12-05T01:44:13.790Z,22.90
2022-12-05T01:46:52.653Z,21.60
2022-12-05T01:49:27.759Z,21.93
2022-12-05T01:52:09.346Z,22.40
2022-12-05T01:54:38.546Z,21.83
2022-12-05T01:57:09.432Z,21.13
2022-12-05T01:59:42.720Z,23.37
2022-12-05T02:02:11.209Z,22.73
2022-12-05T02:04:59.017Z,23.43
2022-12-05T02:07:27.015Z,22.73
2022-12-05T02:09:54.495Z,22.70
2022-12-05T02:12:22.944Z,21.80
2022-12-05T02:15:23.659Z,23.63
2022-12-05T02:18:21.863Z,22.87
2022-12-05T02:21:32.987Z,22.67
2022-12-05T02:24:23.466Z,22.17
2022-12-05T02:26:56.466Z,22.63
2022-12-05T02:29:45.155Z,22.37
2022-12-05T02:32:40.083Z,21.70
2022-12-05T02:35:28.519Z,20.83
2022-12-05T02:38:40.396Z,22.07
2022-12-05T02:41:25.234Z,22.40
2022-12-05T02:44:12.067Z,22.23
2022-12-05T02:46:42.159Z,21.83
2022-12-05T02:49:15.051Z,23.50
2022-12-05T02:51:46.672Z,22.20
2022-12-05T02:54:26.356Z,22.13
2022-12-05T02:56:55.570Z,22.03
2022-12-05T02:59:23.759Z,20.97
2022-12-05T03:01:52.006Z,21.40
2022-12-05T03:04:24.086Z,21.67
2022-12-05T03:07:05.013Z,20.73
2022-12-05T03:09:48.065Z,22.03
2022-12-05T03:12:26.416Z,21.27
2022-12-05T03:15:01.168Z,21.57
2022-12-05T03:17:38.902Z,21.07
2022-12-05T03:20:29.132Z,20.87
2022-12-05T03:23:26.574Z,22.63
2022-12-05T03:26:32.557Z,21.73
2022-12-05T03:29:41.244Z,20.83
2022-12-05T03:32:11.291Z,20.43
2022-12-05T03:35:12.003Z,20.30
2022-12-05T03:38:11.891Z,20.93
2022-12-05T03:40:48.939Z,20.47
2022-12-05T03:43:58.473Z,21.57
2022-12-05T03:46:37.706Z,21.03
2022-12-05T03:49:32.064Z,21.53
2022-12-05T03:52:29.297Z,20.47
2022-12-05T03:55:06.984Z,20.83
2022-12-05T03:57:49.066Z,20.63
2022-12-05T04:00:22.050Z,20.40
2022-12-05T04:03:05.996Z,20.07
2022-12-05T04:05:52.667Z,20.30
2022-12-05T04:08:32.946Z,20.67
2022-12-05T04:11:10.071Z,20.93
2022-12-05T04:13:48.321Z,19.60
2022-12-05T04:16:52.521Z,19.17
2022-12-05T04:20:10.118Z,18.30
2022-12-05T04:22:38.589Z,19.23
2022-12-05T04:25:30.344Z,20.13
2022-12-05T04:28:38.124Z,19.83
2022-12-05T04:31:17.204Z,20.30
2022-12-05T04:34:08.274Z,19.83
2022-12-05T04:36:47.525Z,20.23
2022-12-05T04:39:26.102Z,19.63
2022-12-05T04:41:54.108Z,19.73
2022-12-05T04:44:28.713Z,18.93
2022-12-05T04:47:00.504Z,19.60
2022-12-05T04:49:30.961Z,20.03
2022-12-05T04:52:07.723Z,19.67
2022-12-05T04:54:48.559Z,18.90
2022-12-05T04:57:47.880Z,18.73
2022-12-05T05:00:15.935Z,20.33
2022-12-05T05:03:14.872Z,20.03
2022-12-05T05:05:49.340Z,18.20
2022-12-05T05:08:24.625Z,20.27
2022-12-05T05:11:22.496Z,19.90
2022-12-05T05:13:50.348Z,20.40
2022-12-05T05:16:25.432Z,22.20
2022-12-05T05:18:53.733Z,20.40
2022-12-05T05:21:34.540Z,21.77
2022-12-05T05:24:03.501Z,23.83
2022-12-05T05:26:34.557Z,19.33
2022-12-05T05:29:02.680Z,21.73
2022-12-05T05:31:30.347Z,19.70
2022-12-05T05:33:58.450Z,19.60
2022-12-05T05:36:27.610Z,18.80
2022-12-05T05:38:58.121Z,19.27
2022-12-05T05:41:32.652Z,20.00
2022-12-05T05:44:01.772Z,20.63
2022-12-05T05:46:33.059Z,22.27
2022-12-05T05:49:01.023Z,22.37
2022-12-05T05:51:30.487Z,24.13
2022-12-05T05:53:59.181Z,20.80
2022-12-05T05:56:27.823Z,20.70
2022-12-05T05:59:02.067Z,23.07
2022-12-05T06:01:30.898Z,22.10
2022-12-05T06:03:58.908Z,22.37
2022-12-05T06:06:26.873Z,20.53
2022-12-05T06:08:55.210Z,22.60
2022-12-05T06:11:26.940Z,22.43
2022-12-05T06:14:03.059Z,24.60
2022-12-05T06:16:32.168Z,20.07
2022-12-05T06:18:59.872Z,19.13
2022-12-05T06:21:27.759Z,20.37
2022-12-05T06:23:55.601Z,23.40
2022-12-05T06:26:24.091Z,22.47
2022-12-05T06:28:51.662Z,23.20
2022-12-05T06:31:23.677Z,24.57
2022-12-05T06:33:51.143Z,20.30
2022-12-05T06:36:21.511Z,19.57
2022-12-05T06:38:49.577Z,23.50
2022-12-05T06:41:20.582Z,20.23
2022-12-05T06:43:48.202Z,22.13
2022-12-05T06:46:16.445Z,21.40
2022-12-05T06:48:43.987Z,21.63
2022-12-05T06:51:15.091Z,20.77
2022-12-05T06:53:42.847Z,20.73
2022-12-05T06:56:14.059Z,24.97
2022-12-05T06:58:47.112Z,23.50
2022-12-05T07:01:39.502Z,25.80
2022-12-05T07:04:25.825Z,21.13
2022-12-05T07:06:55.449Z,19.83
2022-12-05T07:10:01.511Z,20.17
2022-12-05T07:12:28.894Z,19.73
2022-12-05T07:14:56.309Z,19.60
2022-12-05T07:17:24.029Z,21.17
2022-12-05T07:19:53.054Z,24.30
2022-12-05T07:22:22.978Z,23.47
2022-12-05T07:24:53.331Z,21.60
2022-12-05T07:27:26.943Z,21.13
2022-12-05T07:29:55.293Z,20.17
2022-12-05T07:32:22.989Z,21.47
2022-12-05T07:34:54.907Z,21.00
2022-12-05T07:37:23.972Z,22.17
2022-12-05T07:39:53.596Z,22.20
2022-12-05T07:42:21.202Z,22.53
2022-12-05T07:44:48.721Z,21.60
2022-12-05T07:47:16.222Z,21.00
2022-12-05T07:49:43.693Z,20.90
2022-12-05T07:52:11.126Z,23.13
2022-12-05T07:54:38.651Z,20.57
2022-12-05T07:57:06.084Z,20.20
2022-12-05T07:59:33.548Z,19.23
2022-12-05T08:02:00.955Z,20.00
2022-12-05T08:04:28.527Z,20.60
2022-12-05T08:06:55.941Z,20.13
2022-12-05T08:09:23.363Z,19.13
2022-12-05T08:11:52.767Z,19.83
2022-12-05T08:14:20.653Z,21.17
2022-12-05T08:16:48.370Z,20.07
2022-12-05T08:19:17.276Z,20.60
2022-12-05T08:21:44.760Z,19.77
2022-12-05T08:24:13.188Z,20.07
2022-12-05T08:26:40.727Z,21.50
2022-12-05T08:29:12.023Z,22.20
2022-12-05T08:31:49.948Z,20.37
2022-12-05T08:34:20.162Z,26.80
2022-12-05T08:36:48.510Z,23.70
2022-12-05T08:39:19.353Z,23.13
2022-12-05T08:41:48.389Z,22.83
2022-12-05T08:44:17.284Z,22.07
2022-12-05T08:46:49.027Z,21.20
2022-12-05T08:49:17.925Z,22.67
2022-12-05T08:51:45.876Z,23.53
2022-12-05T08:54:13.648Z,34.50
2022-12-05T08:56:41.082Z,28.13
2022-12-05T08:59:08.674Z,25.40
2022-12-05T09:01:39.308Z,23.70
2022-12-05T09:04:08.130Z,21.17
2022-12-05T09:06:36.994Z,22.20
2022-12-05T09:09:07.617Z,21.43
2022-12-05T09:11:41.139Z,22.13
2022-12-05T09:14:08.813Z,21.07
2022-12-05T09:16:39.450Z,24.03
2022-12-05T09:19:21.116Z,22.97
2022-12-05T09:21:48.647Z,21.87
2022-12-05T09:24:16.227Z,22.50
2022-12-05T09:26:43.896Z,21.77
2022-12-05T09:29:16.728Z,24.73
2022-12-05T09:31:46.573Z,25.83
2022-12-05T09:34:15.994Z,22.90
2022-12-05T09:36:43.993Z,20.30
2022-12-05T09:39:12.008Z,21.33
2022-12-05T09:42:05.165Z,20.13
2022-12-05T09:45:10.319Z,20.57
2022-12-05T09:48:25.388Z,20.77
2022-12-05T09:51:03.929Z,21.20
2022-12-05T09:53:43.880Z,24.47
2022-12-05T09:56:27.537Z,25.47
2022-12-05T09:59:02.812Z,24.93
2022-12-05T10:01:39.289Z,22.60
2022-12-05T10:04:40.621Z,22.07
2022-12-05T10:07:29.638Z,20.77
2022-12-05T10:10:29.739Z,19.47
2022-12-05T10:13:35.365Z,20.33
2022-12-05T10:16:31.941Z,24.20
2022-12-05T10:19:06.802Z,27.13
2022-12-05T10:21:42.576Z,28.40
2022-12-05T10:24:27.569Z,23.70
2022-12-05T10:27:04.415Z,20.80
2022-12-05T10:29:44.069Z,19.97
2022-12-05T10:32:23.988Z,21.73
2022-12-05T10:34:55.770Z,20.97
2022-12-05T10:37:24.504Z,21.40
2022-12-05T10:39:52.663Z,23.40
2022-12-05T10:42:34.092Z,24.77
2022-12-05T10:45:08.468Z,23.07
2022-12-05T10:47:36.620Z,23.27
2022-12-05T10:50:29.016Z,24.63
2022-12-05T10:52:59.903Z,22.30
2022-12-05T10:55:54.797Z,24.17
2022-12-05T10:58:30.837Z,23.13
2022-12-05T11:01:08.619Z,19.63
2022-12-05T11:03:41.492Z,20.93
2022-12-05T11:06:28.417Z,20.67
2022-12-05T11:09:05.118Z,21.33
2022-12-05T11:11:34.364Z,21.13
2022-12-05T11:14:06.616Z,21.37
2022-12-05T11:16:38.352Z,21.07
2022-12-05T11:19:38.832Z,20.13
2022-12-05T11:22:09.648Z,19.83
2022-12-05T11:24:39.250Z,20.13
2022-12-05T11:27:36.901Z,22.93
2022-12-05T11:30:13.813Z,21.43
2022-12-05T11:32:41.337Z,19.30
2022-12-05T11:35:13.709Z,20.83
2022-12-05T11:37:50.810Z,21.53
2022-12-05T11:40:38.601Z,21.87
2022-12-05T11:43:33.430Z,19.17
2022-12-05T11:46:30.286Z,19.63
2022-12-05T11:49:36.832Z,18.93
2022-12-05T11:52:40.795Z,19.17
2022-12-05T11:55:22.232Z,19.53
2022-12-05T11:58:35.166Z,18.93
2022-12-05T12:01:24.398Z,20.10
2022-12-05T12:04:24.774Z,19.37
2022-12-05T12:07:22.375Z,20.17
2022-12-05T12:10:15.918Z,19.97
2022-12-05T12:12:56.770Z,18.80
2022-12-05T12:15:49.783Z,18.43
2022-12-05T12:18:30.204Z,18.03
2022-12-05T12:21:19.950Z,17.83
2022-12-05T12:23:47.284Z,18.63
2022-12-05T12:26:49.634Z,17.90
2022-12-05T12:29:34.406Z,18.87
2022-12-05T12:32:16.677Z,19.60
2022-12-05T12:34:57.024Z,19.30
2022-12-05T12:37:47.369Z,19.67
2022-12-05T12:40:33.876Z,19.10
2022-12-05T12:43:51.450Z,18.30
2022-12-05T12:46:32.851Z,17.47
2022-12-05T12:49:27.577Z,19.03
2022-12-05T12:52:11.215Z,19.07
2022-12-05T12:55:15.163Z,19.80
2022-12-05T12:58:04.320Z,19.97
2022-12-05T13:01:16.354Z,20.63
2022-12-05T13:04:02.861Z,21.70
2022-12-05T13:06:50.766Z,20.23
2022-12-05T13:09:44.248Z,19.07
2022-12-05T13:12:20.408Z,19.30
2022-12-05T13:15:03.778Z,20.47
2022-12-05T13:17:33.072Z,21.83
2022-12-05T13:20:01.235Z,21.33
2022-12-05T13:22:29.628Z,21.73
2022-12-05T13:24:57.727Z,22.53
2022-12-05T13:27:29.055Z,21.80
2022-12-05T13:30:05.253Z,23.63
2022-12-05T13:32:41.223Z,24.77
2022-12-05T13:35:11.050Z,23.57
2022-12-05T13:38:06.338Z,25.33
2022-12-05T13:40:56.657Z,24.60
2022-12-05T13:43:28.119Z,24.70
2022-12-05T13:46:04.490Z,26.47
2022-12-05T13:48:36.342Z,25.20
2022-12-05T13:51:28.715Z,25.87
2022-12-05T13:54:16.154Z,28.87
2022-12-05T13:57:03.295Z,27.13
2022-12-05T14:00:06.123Z,26.17
2022-12-05T14:02:42.683Z,27.63
2022-12-05T14:05:18.644Z,35.40
2022-12-05T14:07:53.584Z,23.57
2022-12-05T14:10:46.334Z,21.60
2022-12-05T14:13:16.776Z,23.37
2022-12-05T14:15:46.135Z,23.53
2022-12-05T14:18:45.028Z,25.00
2022-12-05T14:21:39.546Z,28.97
2022-12-05T14:24:19.602Z,30.40
2022-12-05T14:27:27.823Z,33.73
2022-12-05T14:30:15.562Z,36.20
2022-12-05T14:32:44.360Z,38.30
2022-12-05T14:35:29.842Z,41.17
2022-12-05T14:38:07.550Z,46.97
2022-12-05T14:40:37.564Z,44.03
2022-12-05T14:43:20.342Z,40.67
2022-12-05T14:45:53.942Z,32.77
2022-12-05T14:48:33.987Z,29.70
2022-12-05T14:51:02.648Z,27.33
2022-12-05T14:53:37.759Z,28.77
2022-12-05T14:56:27.107Z,24.20
2022-12-05T14:59:05.624Z,27.07
2022-12-05T15:01:50.547Z,26.80
2022-12-05T15:04:36.666Z,19.60
2022-12-05T15:07:10.375Z,19.53
2022-12-05T15:09:49.184Z,19.43
2022-12-05T15:12:25.867Z,19.63
2022-12-05T15:15:13.858Z,21.60
2022-12-05T15:17:53.697Z,21.43
2022-12-05T15:20:50.053Z,21.13
2022-12-05T15:23:48.497Z,22.07
2022-12-05T15:26:49.277Z,23.57
2022-12-05T15:29:23.953Z,28.33
2022-12-05T15:31:54.080Z,28.33
2022-12-05T15:34:27.001Z,31.50
2022-12-05T15:37:34.396Z,33.93
2022-12-05T15:40:09.168Z,25.27
2022-12-05T15:42:46.219Z,24.47
2022-12-05T15:45:16.165Z,25.27
2022-12-05T15:47:54.315Z,30.23
2022-12-05T15:50:33.256Z,35.77
2022-12-05T15:53:18.856Z,34.57
2022-12-05T15:56:06.803Z,27.43
2022-12-05T15:58:42.449Z,26.07
2022-12-05T16:01:25.857Z,26.43
2022-12-05T16:04:04.364Z,26.83
2022-12-05T16:06:42.708Z,25.13
2022-12-05T16:09:17.339Z,27.67
2022-12-05T16:11:59.276Z,33.83
2022-12-05T16:17:22.915Z,40.47
2022-12-05T16:19:50.602Z,38.87
2022-12-05T16:22:25.882Z,36.07
2022-12-05T16:25:01.716Z,34.07
2022-12-05T16:27:39.577Z,38.73
2022-12-05T16:30:20.871Z,42.03
2022-12-05T16:32:51.042Z,40.13
2022-12-05T16:35:32.344Z,39.50
2022-12-05T16:38:10.271Z,39.40
2022-12-05T16:40:40.365Z,36.30
2022-12-05T16:43:19.437Z,34.30
2022-12-05T16:45:48.832Z,32.00
2022-12-05T16:48:37.851Z,27.70
2022-12-05T16:51:14.645Z,27.23
2022-12-05T16:53:49.140Z,25.97
2022-12-05T16:56:20.782Z,25.33
2022-12-05T16:58:48.293Z,27.57
2022-12-05T17:01:27.665Z,26.73
2022-12-05T17:03:56.920Z,27.47
2022-12-05T17:06:26.191Z,27.17
2022-12-05T17:08:55.212Z,26.77
2022-12-05T17:11:26.792Z,28.93
2022-12-05T17:13:56.772Z,30.57
2022-12-05T17:16:26.774Z,32.80
2022-12-05T17:18:54.734Z,32.67
2022-12-05T17:21:31.385Z,48.97
2022-12-05T17:23:58.851Z,46.27
2022-12-05T17:26:26.672Z,55.43
2022-12-05T17:28:54.166Z,52.50
2022-12-05T17:31:24.769Z,56.50
2022-12-05T17:33:54.605Z,64.23
2022-12-05T17:36:22.272Z,52.07
2022-12-05T17:38:50.512Z,42.97
2022-12-05T17:41:21.411Z,37.13
2022-12-05T17:43:49.520Z,35.33
2022-12-05T17:46:22.645Z,31.83
2022-12-05T17:48:51.952Z,34.77
2022-12-05T17:51:20.757Z,32.57
2022-12-05T17:53:48.388Z,32.10
2022-12-05T17:56:16.734Z,33.63
2022-12-05T17:58:44.287Z,35.10
2022-12-05T18:01:17.192Z,36.67
2022-12-05T18:03:44.709Z,36.30
2022-12-05T18:06:12.925Z,39.20
2022-12-05T18:08:42.169Z,35.53
2022-12-05T18:11:09.736Z,35.83
2022-12-05T18:13:37.209Z,35.87
2022-12-05T18:16:05.107Z,44.00
2022-12-05T18:18:32.581Z,46.90
2022-12-05T18:21:09.244Z,44.60
2022-12-05T18:23:38.127Z,45.13
2022-12-05T18:26:08.115Z,59.03
2022-12-05T18:28:38.675Z,54.93
2022-12-05T18:31:16.367Z,56.47
2022-12-05T18:33:45.141Z,46.03
2022-12-05T18:36:16.090Z,41.23
2022-12-05T18:38:49.253Z,49.03
2022-12-05T18:41:16.775Z,51.33
2022-12-05T18:43:44.261Z,45.67
2022-12-05T18:46:11.936Z,46.60
2022-12-05T18:48:42.620Z,42.97
2022-12-05T18:51:24.199Z,43.33
2022-12-05T18:53:54.223Z,45.47
2022-12-05T18:56:31.303Z,45.97
2022-12-05T18:59:06.268Z,42.23
2022-12-05T19:01:37.622Z,46.77
2022-12-05T19:04:07.554Z,46.00
2022-12-05T19:06:37.317Z,46.13
2022-12-05T19:09:08.622Z,45.27
2022-12-05T19:11:36.463Z,45.03
2022-12-05T19:14:05.559Z,44.33
2022-12-05T19:16:35.584Z,47.23
2022-12-05T19:19:06.223Z,50.60
2022-12-05T19:21:35.359Z,64.73
2022-12-05T19:24:07.229Z,62.83
2022-12-05T19:26:36.194Z,67.67
2022-12-05T19:29:04.667Z,65.37
2022-12-05T19:31:32.358Z,59.17
2022-12-05T19:34:01.914Z,50.63
2022-12-05T19:36:38.983Z,52.27
2022-12-05T19:39:21.188Z,48.27
2022-12-05T19:41:49.528Z,47.87
2022-12-05T19:44:17.577Z,52.57
2022-12-05T19:46:45.227Z,52.30
2022-12-05T19:49:15.233Z,55.53
2022-12-05T19:51:43.817Z,50.50
2022-12-05T19:54:13.993Z,46.77
2022-12-05T19:56:41.447Z,45.03
2022-12-05T19:59:09.089Z,44.40
2022-12-05T20:01:39.931Z,43.07
2022-12-05T20:04:14.466Z,44.17
2022-12-05T20:06:45.427Z,50.70
2022-12-05T20:09:15.800Z,65.13
2022-12-05T20:11:50.986Z,54.47
2022-12-05T20:14:22.349Z,56.37
2022-12-05T20:16:49.982Z,51.90
2022-12-05T20:19:17.443Z,62.47
2022-12-05T20:21:44.913Z,42.63
2022-12-05T20:24:12.764Z,41.70
2022-12-05T20:26:43.330Z,41.77
2022-12-05T20:29:10.964Z,73.03
2022-12-05T20:31:43.168Z,70.40
2022-12-05T20:34:13.936Z,56.00
2022-12-05T20:36:42.145Z,48.00
2022-12-05T20:39:17.456Z,44.23
2022-12-05T20:41:45.530Z,39.50
2022-12-05T20:44:16.259Z,39.47
2022-12-05T20:46:44.203Z,37.40
2022-12-05T20:49:14.567Z,35.73
2022-12-05T20:51:44.803Z,35.83
2022-12-05T20:54:14.164Z,49.90
2022-12-05T20:56:41.869Z,63.87
2022-12-05T20:59:12.094Z,57.77
2022-12-05T21:01:40.581Z,60.03
2022-12-05T21:04:09.162Z,65.10
2022-12-05T21:06:40.932Z,58.10
2022-12-05T21:09:15.480Z,58.33
2022-12-05T21:11:43.273Z,59.73
2022-12-05T21:14:11.886Z,59.03
2022-12-05T21:16:39.488Z,56.60
2022-12-05T21:19:06.988Z,55.63
2022-12-05T21:21:34.689Z,58.43
2022-12-05T21:24:04.162Z,56.23
2022-12-05T21:26:34.043Z,53.70
2022-12-05T21:29:04.452Z,54.70
2022-12-05T21:31:35.565Z,55.23
2022-12-05T21:34:07.616Z,51.47
2022-12-05T21:36:37.056Z,52.97
2022-12-05T21:39:06.726Z,50.80
2022-12-05T21:41:34.734Z,60.70
2022-12-05T21:44:02.392Z,60.50
2022-12-05T21:46:29.963Z,52.43
2022-12-05T21:48:58.178Z,50.73
2022-12-05T21:51:25.834Z,58.40
2022-12-05T21:53:53.324Z,56.50
2022-12-05T21:56:23.744Z,53.73
2022-12-05T21:58:52.299Z,49.33
2022-12-05T22:01:26.229Z,49.40
2022-12-05T22:03:57.480Z,53.03
2022-12-05T22:06:25.281Z,53.17
2022-12-05T22:08:54.350Z,49.63
2022-12-05T22:11:23.917Z,52.20
2022-12-05T22:13:53.492Z,52.83
2022-12-05T22:16:21.478Z,48.63
2022-12-05T22:18:49.562Z,48.90
2022-12-05T22:21:21.898Z,48.73
2022-12-05T22:23:49.934Z,48.23
2022-12-05T22:26:23.361Z,49.43
2022-12-05T22:28:55.860Z,49.57
2022-12-05T22:31:24.071Z,54.47
2022-12-05T22:33:51.933Z,55.80
2022-12-05T22:36:20.157Z,52.80
2022-12-05T22:38:48.610Z,50.17
2022-12-05T22:41:20.397Z,49.43
2022-12-05T22:43:54.531Z,47.97
2022-12-05T22:46:23.045Z,50.30
2022-12-05T22:48:51.383Z,61.33
2022-12-05T22:51:21.926Z,66.03
2022-12-05T22:53:53.824Z,55.70
2022-12-05T22:56:25.310Z,55.57
2022-12-05T22:58:58.845Z,61.90
2022-12-05T23:01:35.094Z,55.93
2022-12-05T23:04:10.577Z,64.70
2022-12-05T23:06:38.937Z,52.17
2022-12-05T23:09:09.899Z,44.87
2022-12-05T23:11:38.219Z,51.37
2022-12-05T23:14:07.396Z,49.17
2022-12-05T23:16:35.147Z,51.27
2022-12-05T23:19:05.806Z,50.87
2022-12-05T23:21:39.867Z,48.90
2022-12-05T23:24:10.977Z,45.20
2022-12-05T23:26:46.232Z,40.47
2022-12-05T23:29:15.421Z,40.20
2022-12-05T23:31:43.581Z,40.83
2022-12-05T23:34:12.159Z,41.20
2022-12-05T23:36:39.699Z,41.07
2022-12-05T23:39:07.258Z,40.67
2022-12-05T23:41:34.944Z,51.60
2022-12-05T23:44:03.922Z,40.57
2022-12-05T23:46:31.417Z,40.60
2022-12-05T23:48:58.992Z,49.93
2022-12-05T23:51:29.113Z,43.23
2022-12-05T23:54:02.281Z,43.13
2022-12-05T23:56:33.506Z,45.47
2022-12-05T23:59:03.212Z,35.53
